If you wish to contribute or participate in the discussions about articles you are invited to join SKYbrary as a registered user

 Actions

Ciudad del Este/Guarani International Airport

From SKYbrary Wiki

SGES
Airport
ICAO: SGES – IATA: AGT
Summary
Name Ciudad del Este/Guarani International Airport
Region South America and Caribbean
Territory Paraguay PY.gif
Location Minga Guazú, Alto Parana
Serving Ciudad del Este
Elevation 257.861 m
846 ft
846 ft257.861 m
Type medium airport
Coordinates 25° 27' 19.80" S, 54° 50' 36.93" W
Runways
Designator Length Width Surface ROPS
5/23 3400 m11,154.856 ft
45 m147.638 ft
ASP yes/yes


METAR
Observation SGES 231900Z 26011KT CAVOK 31/10 Q1011
Station Aeropuerto Guarany
Date/Time 23 October 2019 19:00:00
Wind direction 260°
Wind speed 11 kts
Lowest cloud amount clouds and visibility OK
Temperature 31°C
Dew point 10°C
Humidity 27%
QNH 1011 hPa
Weather condition n/a

Maps

Terrain

Loading map...

Airport Layout

Loading map...


Accidents & Serious Incidents at or in vicinity of SGES

None on SKYbrary